createdAt,value
2019-06-07T00:02:19.984Z,99.90
2019-06-07T00:04:46.617Z,99.90
2019-06-07T00:07:14.991Z,99.90
2019-06-07T00:09:41.378Z,99.90
2019-06-07T00:12:09.568Z,99.90
2019-06-07T00:14:36.012Z,99.90
2019-06-07T00:17:02.650Z,99.90
2019-06-07T00:19:29.049Z,99.90
2019-06-07T00:24:23.773Z,99.90
2019-06-07T00:26:58.338Z,99.90
2019-06-07T00:31:40.572Z,99.90
2019-06-07T00:34:10.773Z,99.90
2019-06-07T00:36:41.277Z,99.90
2019-06-07T00:39:21.911Z,99.90
2019-06-07T00:41:48.479Z,99.90
2019-06-07T00:44:21.550Z,99.90
2019-06-07T00:46:48.976Z,99.90
2019-06-07T00:49:34.873Z,99.90
2019-06-07T00:51:51.491Z,99.90
2019-06-07T00:54:22.469Z,99.90
2019-06-07T00:56:51.802Z,99.90
2019-06-07T00:59:28.417Z,99.90
2019-06-07T01:01:52.479Z,99.90
2019-06-07T01:04:23.610Z,99.90
2019-06-07T01:06:53.092Z,99.90
2019-06-07T01:09:25.339Z,99.90
2019-06-07T01:11:53.721Z,99.90
2019-06-07T01:14:27.604Z,99.90
2019-06-07T01:16:59.367Z,99.90
2019-06-07T01:19:27.369Z,99.90
2019-06-07T01:21:57.109Z,99.90
2019-06-07T01:24:27.630Z,99.90
2019-06-07T01:26:57.465Z,99.90
2019-06-07T01:29:30.339Z,99.90
2019-06-07T01:31:57.991Z,99.90
2019-06-07T01:34:28.671Z,99.90
2019-06-07T01:36:59.602Z,99.90
2019-06-07T01:39:31.797Z,99.90
2019-06-07T01:42:04.520Z,99.90
2019-06-07T01:44:34.179Z,99.90
2019-06-07T01:47:03.728Z,99.90
2019-06-07T01:49:33.280Z,99.90
2019-06-07T01:52:02.710Z,99.90
2019-06-07T01:57:03.295Z,99.90
2019-06-07T01:59:32.838Z,99.90
2019-06-07T02:02:02.352Z,99.90
2019-06-07T02:04:33.156Z,99.90
2019-06-07T02:07:02.980Z,99.90
2019-06-07T02:09:32.603Z,99.90
2019-06-07T02:12:02.317Z,99.90
2019-06-07T02:14:33.569Z,99.90
2019-06-07T02:17:03.321Z,99.90
2019-06-07T02:19:33.535Z,99.90
2019-06-07T02:22:03.265Z,99.90
2019-06-07T02:24:35.796Z,99.90
2019-06-07T02:27:03.882Z,99.90
2019-06-07T02:29:33.822Z,99.90
2019-06-07T02:32:03.577Z,99.90
2019-06-07T02:34:38.669Z,99.90
2019-06-07T02:37:04.475Z,99.90
2019-06-07T02:39:40.225Z,99.90
2019-06-07T02:42:06.376Z,99.90
2019-06-07T02:44:39.646Z,99.90
2019-06-07T02:47:06.948Z,99.90
2019-06-07T02:49:40.991Z,99.90
2019-06-07T02:52:07.536Z,99.90
2019-06-07T02:54:40.375Z,99.90
2019-06-07T02:57:08.341Z,99.90
2019-06-07T03:00:04.339Z,99.90
2019-06-07T03:02:10.231Z,99.90
2019-06-07T03:04:44.477Z,99.90
2019-06-07T03:07:14.831Z,99.90
2019-06-07T03:10:05.098Z,99.90
2019-06-07T03:12:39.085Z,99.90
2019-06-07T03:15:08.667Z,99.90
2019-06-07T03:17:50.584Z,99.90
2019-06-07T03:20:21.761Z,99.90
2019-06-07T03:22:51.825Z,99.90
2019-06-07T03:25:21.346Z,99.90
2019-06-07T03:27:51.228Z,99.90
2019-06-07T03:30:39.023Z,99.90
2019-06-07T03:32:52.146Z,99.90
2019-06-07T03:35:22.954Z,99.90
2019-06-07T03:37:52.381Z,99.90
2019-06-07T03:40:21.838Z,99.90
2019-06-07T03:42:51.274Z,99.90
2019-06-07T03:45:20.744Z,99.90
2019-06-07T03:47:50.226Z,99.90
2019-06-07T03:50:20.750Z,99.90
2019-06-07T03:52:50.182Z,99.90
2019-06-07T03:55:20.613Z,99.90
2019-06-07T04:00:22.744Z,99.90
2019-06-07T04:02:52.259Z,99.90
2019-06-07T04:05:21.758Z,99.90
2019-06-07T04:07:54.164Z,99.90
2019-06-07T04:10:44.694Z,99.90
2019-06-07T04:12:54.627Z,99.90
2019-06-07T04:15:24.167Z,99.90
2019-06-07T04:18:01.827Z,99.90
2019-06-07T04:20:24.680Z,99.90
2019-06-07T04:22:54.127Z,99.90
2019-06-07T04:25:23.564Z,99.90
2019-06-07T04:27:56.167Z,99.90
2019-06-07T04:30:43.118Z,99.90
2019-06-07T04:33:13.845Z,99.90
2019-06-07T04:35:45.200Z,99.90
2019-06-07T04:38:15.347Z,99.90
2019-06-07T04:40:45.166Z,99.90
2019-06-07T04:43:14.609Z,99.90
2019-06-07T04:45:50.627Z,99.90
2019-06-07T04:48:15.479Z,99.90
2019-06-07T04:50:46.700Z,99.90
2019-06-07T04:53:16.221Z,99.90
2019-06-07T04:55:45.669Z,99.90
2019-06-07T04:58:15.110Z,99.90
2019-06-07T05:00:54.203Z,99.90
2019-06-07T05:03:15.712Z,99.90
2019-06-07T05:05:45.129Z,99.90
2019-06-07T05:08:27.628Z,99.90
2019-06-07T05:10:45.772Z,99.90
2019-06-07T05:13:15.199Z,99.90
2019-06-07T05:15:46.020Z,99.90
2019-06-07T05:18:15.437Z,99.90
2019-06-07T05:20:44.934Z,99.90
2019-06-07T05:23:59.442Z,99.90
2019-06-07T05:25:46.670Z,99.90
2019-06-07T05:28:16.099Z,99.90
2019-06-07T05:31:05.413Z,99.90
2019-06-07T05:33:16.625Z,99.90
2019-06-07T05:35:46.053Z,99.90
2019-06-07T05:38:15.486Z,99.90
2019-06-07T05:40:48.629Z,99.90
2019-06-07T05:43:28.434Z,99.90
2019-06-07T05:45:57.978Z,97.40
2019-06-07T05:48:27.404Z,98.20
2019-06-07T05:50:57.726Z,96.70
2019-06-07T05:53:28.459Z,96.70
2019-06-07T05:55:57.881Z,97.00
2019-06-07T05:58:27.314Z,95.50
2019-06-07T06:01:40.967Z,95.50
2019-06-07T06:03:28.017Z,96.10
2019-06-07T06:05:57.552Z,94.50
2019-06-07T06:08:26.685Z,93.90
2019-06-07T06:10:56.130Z,93.50
2019-06-07T06:13:25.702Z,93.10
2019-06-07T06:16:01.814Z,92.90
2019-06-07T06:18:26.266Z,93.40
2019-06-07T06:21:15.562Z,93.00
2019-06-07T06:23:26.793Z,92.80
2019-06-07T06:25:57.920Z,92.30
2019-06-07T06:28:27.513Z,91.80
2019-06-07T06:30:57.233Z,91.90
2019-06-07T06:33:34.381Z,90.60
2019-06-07T06:35:57.745Z,90.40
2019-06-07T06:38:27.198Z,91.10
2019-06-07T06:41:14.227Z,91.70
2019-06-07T06:43:27.725Z,91.70
2019-06-07T06:45:57.284Z,90.10
2019-06-07T06:48:26.753Z,91.60
2019-06-07T06:50:56.227Z,90.00
2019-06-07T06:53:25.684Z,88.10
2019-06-07T06:55:55.156Z,88.20
2019-06-07T06:58:25.603Z,87.50
2019-06-07T07:01:05.794Z,88.00
2019-06-07T07:06:12.312Z,84.00
2019-06-07T07:08:28.648Z,83.60
2019-06-07T07:10:58.114Z,83.10
2019-06-07T07:13:27.569Z,82.80
2019-06-07T07:15:58.427Z,85.10
2019-06-07T07:18:28.241Z,82.40
2019-06-07T07:20:57.838Z,78.50
2019-06-07T07:23:27.469Z,78.00
2019-06-07T07:25:59.834Z,77.00
2019-06-07T07:28:29.198Z,77.60
2019-06-07T07:30:58.627Z,79.20
2019-06-07T07:34:20.089Z,78.60
2019-06-07T07:38:30.265Z,80.00
2019-06-07T07:41:14.150Z,77.30
2019-06-07T07:43:31.085Z,76.50
2019-06-07T07:46:03.103Z,80.60
2019-06-07T07:48:32.163Z,77.20
2019-06-07T07:51:03.365Z,78.40
2019-06-07T07:53:48.269Z,79.70
2019-06-07T07:56:04.466Z,80.30
2019-06-07T07:58:34.145Z,75.50
2019-06-07T08:01:10.147Z,76.40
2019-06-07T08:03:35.082Z,78.90
2019-06-07T08:06:04.653Z,79.80
2019-06-07T08:08:36.899Z,83.60
2019-06-07T08:11:06.405Z,82.30
2019-06-07T08:13:35.850Z,81.00
2019-06-07T08:16:12.275Z,82.90
2019-06-07T08:18:36.563Z,87.40
2019-06-07T08:21:23.731Z,87.40
2019-06-07T08:23:37.053Z,88.50
2019-06-07T08:26:06.689Z,89.60
2019-06-07T08:28:36.471Z,90.20
2019-06-07T08:31:07.597Z,89.90
2019-06-07T08:33:37.198Z,90.40
2019-06-07T08:36:19.413Z,91.70
2019-06-07T08:38:47.416Z,91.60
2019-06-07T08:41:11.745Z,93.10
2019-06-07T08:43:40.606Z,92.30
2019-06-07T08:46:10.353Z,91.90
2019-06-07T08:48:39.824Z,92.10
2019-06-07T08:51:09.529Z,92.70
2019-06-07T08:53:38.953Z,92.50
2019-06-07T08:56:11.334Z,92.30
2019-06-07T08:58:40.704Z,92.50
2019-06-07T09:01:11.377Z,92.70
2019-06-07T09:03:40.851Z,93.00
2019-06-07T09:06:54.012Z,93.30
2019-06-07T09:08:41.376Z,94.10
2019-06-07T09:11:11.590Z,94.00
2019-06-07T09:13:41.166Z,92.20
2019-06-07T09:16:11.694Z,92.20
2019-06-07T09:18:44.409Z,94.20
2019-06-07T09:21:12.318Z,93.90
2019-06-07T09:24:06.976Z,94.20
2019-06-07T09:26:32.203Z,92.70
2019-06-07T09:29:06.850Z,92.00
2019-06-07T09:31:52.124Z,92.20
2019-06-07T09:34:13.763Z,93.50
2019-06-07T09:36:36.063Z,93.70
2019-06-07T09:39:10.371Z,94.30
2019-06-07T09:41:47.357Z,93.90
2019-06-07T09:44:21.453Z,94.00
2019-06-07T09:46:46.471Z,94.60
2019-06-07T09:49:28.580Z,94.40
2019-06-07T09:51:57.934Z,94.30
2019-06-07T09:55:03.282Z,94.70
2019-06-07T09:57:01.689Z,95.20
2019-06-07T09:59:29.421Z,94.60
2019-06-07T10:02:00.668Z,94.90
2019-06-07T10:04:31.463Z,95.90
2019-06-07T10:07:09.031Z,93.40
2019-06-07T10:12:06.422Z,92.80
2019-06-07T10:14:37.168Z,92.80
2019-06-07T10:17:07.391Z,92.70
2019-06-07T10:19:36.913Z,93.80
2019-06-07T10:22:07.751Z,93.10
2019-06-07T10:24:37.430Z,93.60
2019-06-07T10:27:07.937Z,93.80
2019-06-07T10:29:37.461Z,93.90
2019-06-07T10:32:07.192Z,94.70
2019-06-07T10:34:36.789Z,93.60
2019-06-07T10:37:09.205Z,93.90
2019-06-07T10:39:48.185Z,93.80
2019-06-07T10:42:09.694Z,93.70
2019-06-07T10:44:40.833Z,93.70
2019-06-07T10:47:10.241Z,93.90
2019-06-07T10:49:39.677Z,94.70
2019-06-07T10:52:10.378Z,95.20
2019-06-07T10:54:40.204Z,94.90
2019-06-07T10:57:12.894Z,94.20
2019-06-07T10:59:40.793Z,95.20
2019-06-07T11:02:11.765Z,94.90
2019-06-07T11:04:42.475Z,94.70
2019-06-07T11:07:12.103Z,95.20
2019-06-07T11:09:41.680Z,95.50
2019-06-07T11:12:12.567Z,93.70
2019-06-07T11:14:42.154Z,93.50
2019-06-07T11:17:13.282Z,93.00
2019-06-07T11:19:42.941Z,92.80
2019-06-07T11:22:12.405Z,93.20
2019-06-07T11:24:41.842Z,93.20
2019-06-07T11:27:13.414Z,93.00
2019-06-07T11:29:43.454Z,91.40
2019-06-07T11:32:12.967Z,91.20
2019-06-07T11:34:42.419Z,91.80
2019-06-07T11:37:15.934Z,92.00
2019-06-07T11:39:44.183Z,91.80
2019-06-07T11:42:14.041Z,93.70
2019-06-07T11:44:56.255Z,92.10
2019-06-07T11:47:14.715Z,93.30
2019-06-07T11:49:44.166Z,93.70
2019-06-07T11:52:14.023Z,93.20
2019-06-07T11:54:43.549Z,94.00
2019-06-07T11:57:13.113Z,93.90
2019-06-07T11:59:42.508Z,94.30
2019-06-07T12:02:13.300Z,93.50
2019-06-07T12:05:02.655Z,93.90
2019-06-07T12:07:32.170Z,93.70
2019-06-07T12:10:01.867Z,94.10
2019-06-07T12:12:32.001Z,94.40
2019-06-07T12:15:02.182Z,94.30
2019-06-07T12:17:32.175Z,93.40
2019-06-07T12:20:02.926Z,92.40
2019-06-07T12:22:32.558Z,92.50
2019-06-07T12:25:05.806Z,94.10
2019-06-07T12:27:34.265Z,92.50
2019-06-07T12:30:11.337Z,92.70
2019-06-07T12:32:37.029Z,93.20
2019-06-07T12:35:08.559Z,93.50
2019-06-07T12:37:44.599Z,93.40
2019-06-07T12:40:09.854Z,93.60
2019-06-07T12:42:39.390Z,93.40
2019-06-07T12:45:10.432Z,94.20
2019-06-07T12:47:39.876Z,93.80
2019-06-07T12:50:09.909Z,94.30
2019-06-07T12:52:39.347Z,94.50
2019-06-07T12:55:09.023Z,94.90
2019-06-07T12:57:38.597Z,95.00
2019-06-07T13:00:10.868Z,94.40
2019-06-07T13:02:40.400Z,95.30
2019-06-07T13:05:10.169Z,92.30
2019-06-07T13:07:39.640Z,92.10
2019-06-07T13:10:10.320Z,92.40
2019-06-07T13:12:39.798Z,93.00
2019-06-07T13:15:09.881Z,93.10
2019-06-07T13:17:39.344Z,92.90
2019-06-07T13:20:09.834Z,93.80
2019-06-07T13:22:39.284Z,93.30
2019-06-07T13:25:09.255Z,93.90
2019-06-07T13:27:39.764Z,94.40
2019-06-07T13:30:11.457Z,94.40
2019-06-07T13:32:41.024Z,94.90
2019-06-07T13:35:10.859Z,94.80
2019-06-07T13:37:41.949Z,94.60
2019-06-07T13:40:11.745Z,94.70
2019-06-07T13:42:41.195Z,94.80
2019-06-07T13:45:10.974Z,94.60
2019-06-07T13:47:40.420Z,94.50
2019-06-07T13:50:10.687Z,94.80
2019-06-07T13:52:41.964Z,94.30
2019-06-07T13:55:11.671Z,94.70
2019-06-07T13:57:41.105Z,94.20
2019-06-07T14:00:13.787Z,95.80
2019-06-07T14:02:43.242Z,94.50
2019-06-07T14:05:12.756Z,93.90
2019-06-07T14:07:42.195Z,94.80
2019-06-07T14:10:12.180Z,93.60
2019-06-07T14:12:41.625Z,94.20
2019-06-07T14:15:11.449Z,93.90
2019-06-07T14:17:40.957Z,94.10
2019-06-07T14:20:11.075Z,94.70
2019-06-07T14:22:40.758Z,94.20
2019-06-07T14:25:13.330Z,94.40
2019-06-07T14:27:42.773Z,94.70
2019-06-07T14:30:12.668Z,94.90
2019-06-07T14:32:42.091Z,95.00
2019-06-07T14:35:12.110Z,93.10
2019-06-07T14:37:41.706Z,92.90
2019-06-07T14:40:11.879Z,93.50
2019-06-07T14:42:41.249Z,93.50
2019-06-07T14:45:11.518Z,94.10
2019-06-07T14:47:41.083Z,93.90
2019-06-07T14:50:11.974Z,93.10
2019-06-07T14:52:41.514Z,94.80
2019-06-07T14:55:11.618Z,93.40
2019-06-07T14:57:41.226Z,93.00
2019-06-07T15:00:12.921Z,92.30
2019-06-07T15:02:42.517Z,92.00
2019-06-07T15:05:12.259Z,92.10
2019-06-07T15:07:41.752Z,91.40
2019-06-07T15:10:12.585Z,91.80
2019-06-07T15:12:42.042Z,91.70
2019-06-07T15:15:15.156Z,92.00
2019-06-07T15:17:44.507Z,92.10
2019-06-07T15:20:14.248Z,92.20
2019-06-07T15:22:43.673Z,92.20
2019-06-07T15:25:13.256Z,92.00
2019-06-07T15:27:42.689Z,92.30
2019-06-07T15:30:12.488Z,92.00
2019-06-07T15:32:42.004Z,93.40
2019-06-07T15:35:11.850Z,92.50
2019-06-07T15:37:41.774Z,92.70
2019-06-07T15:40:12.351Z,92.30
2019-06-07T15:42:51.698Z,92.00
2019-06-07T15:45:13.501Z,92.20
2019-06-07T15:47:43.022Z,92.40
2019-06-07T15:50:12.928Z,93.00
2019-06-07T15:52:43.325Z,93.10
2019-06-07T15:55:14.967Z,93.50
2019-06-07T15:57:44.332Z,93.20
2019-06-07T16:00:15.627Z,93.40
2019-06-07T16:02:45.069Z,93.30
2019-06-07T16:05:15.264Z,93.30
2019-06-07T16:07:47.394Z,93.40
2019-06-07T16:10:18.558Z,93.50
2019-06-07T16:12:59.569Z,93.80
2019-06-07T16:15:22.718Z,93.70
2019-06-07T16:17:52.248Z,93.60
2019-06-07T16:20:21.917Z,93.80
2019-06-07T16:22:51.266Z,93.80
2019-06-07T16:25:21.067Z,94.10
2019-06-07T16:27:50.506Z,93.80
2019-06-07T16:30:20.313Z,93.80
2019-06-07T16:32:49.796Z,93.80
2019-06-07T16:35:20.093Z,94.00
2019-06-07T16:37:52.099Z,94.00
2019-06-07T16:40:21.184Z,93.90
2019-06-07T16:42:51.656Z,93.90
2019-06-07T16:45:21.526Z,94.40
2019-06-07T16:47:50.982Z,94.40
2019-06-07T16:50:21.083Z,94.50
2019-06-07T16:52:50.624Z,94.40
2019-06-07T16:55:20.295Z,94.50
2019-06-07T16:57:49.730Z,94.70
2019-06-07T17:00:21.072Z,94.60
2019-06-07T17:02:50.579Z,94.50
2019-06-07T17:05:20.406Z,94.70
2019-06-07T17:07:50.282Z,95.00
2019-06-07T17:10:20.031Z,95.20
2019-06-07T17:12:49.489Z,95.30
2019-06-07T17:15:19.658Z,95.40
2019-06-07T17:17:49.363Z,95.70
2019-06-07T17:20:20.232Z,95.60
2019-06-07T17:22:49.851Z,95.80
2019-06-07T17:25:20.690Z,96.00
2019-06-07T17:27:50.332Z,96.00
2019-06-07T17:30:21.411Z,96.20
2019-06-07T17:32:58.729Z,96.50
2019-06-07T17:35:22.590Z,97.60
2019-06-07T17:37:52.614Z,99.90
2019-06-07T17:40:23.115Z,99.90
2019-06-07T17:42:52.904Z,99.90
2019-06-07T17:45:23.880Z,99.90
2019-06-07T17:47:53.326Z,99.90
2019-06-07T17:50:23.639Z,99.90
2019-06-07T17:52:53.394Z,99.90
2019-06-07T17:55:23.600Z,99.90
2019-06-07T17:57:53.548Z,99.90
2019-06-07T18:00:29.311Z,99.90
2019-06-07T18:02:56.707Z,99.90
2019-06-07T18:05:27.582Z,99.90
2019-06-07T18:07:57.588Z,99.90
2019-06-07T18:10:39.826Z,99.90
2019-06-07T18:13:09.438Z,99.90
2019-06-07T18:15:41.295Z,99.90
2019-06-07T18:18:11.858Z,99.90
2019-06-07T18:20:41.644Z,99.90
2019-06-07T18:23:12.037Z,99.90
2019-06-07T18:25:41.634Z,99.90
2019-06-07T18:28:13.232Z,99.90
2019-06-07T18:30:43.248Z,99.90
2019-06-07T18:33:12.697Z,99.90
2019-06-07T18:35:42.172Z,99.90
2019-06-07T18:38:11.630Z,99.90
2019-06-07T18:40:41.990Z,99.90
2019-06-07T18:43:11.687Z,99.90
2019-06-07T18:45:41.116Z,99.90
2019-06-07T18:48:10.630Z,99.90
2019-06-07T18:50:40.068Z,99.90
2019-06-07T18:53:09.510Z,99.90
2019-06-07T18:55:39.044Z,99.90
2019-06-07T18:58:08.415Z,99.90
2019-06-07T19:00:37.833Z,99.90
2019-06-07T19:03:07.282Z,99.90
2019-06-07T19:05:36.712Z,99.90
2019-06-07T19:08:06.259Z,99.90
2019-06-07T19:10:35.780Z,99.90
2019-06-07T19:13:05.600Z,99.90
2019-06-07T19:15:36.635Z,99.90
2019-06-07T19:18:06.618Z,99.90
2019-06-07T19:20:36.178Z,99.90
2019-06-07T19:23:09.578Z,99.90
2019-06-07T19:25:39.104Z,99.90
2019-06-07T19:28:08.669Z,99.90
2019-06-07T19:30:38.312Z,99.90
2019-06-07T19:33:07.841Z,99.90
2019-06-07T19:35:37.338Z,99.90
2019-06-07T19:38:06.911Z,99.90
2019-06-07T19:40:36.390Z,99.90
2019-06-07T19:43:06.060Z,99.90
2019-06-07T19:45:35.564Z,99.90
2019-06-07T19:48:05.452Z,99.90
2019-06-07T19:50:34.894Z,99.90
2019-06-07T19:53:04.670Z,99.90
2019-06-07T19:55:34.207Z,99.90
2019-06-07T19:58:03.966Z,99.90
2019-06-07T20:00:33.649Z,99.90
2019-06-07T20:03:04.478Z,99.90
2019-06-07T20:05:34.478Z,99.90
2019-06-07T20:08:04.902Z,99.90
2019-06-07T20:10:36.046Z,99.90
2019-06-07T20:13:05.557Z,99.90
2019-06-07T20:15:35.082Z,99.90
2019-06-07T20:18:05.617Z,99.90
2019-06-07T20:20:35.321Z,99.90
2019-06-07T20:23:05.178Z,99.90
2019-06-07T20:25:34.954Z,99.90
2019-06-07T20:28:05.571Z,99.90
2019-06-07T20:30:35.261Z,99.90
2019-06-07T20:33:06.191Z,99.90
2019-06-07T20:35:35.725Z,99.90
2019-06-07T20:38:05.712Z,99.90
2019-06-07T20:40:35.492Z,99.90
2019-06-07T20:43:05.759Z,99.90
2019-06-07T20:45:35.453Z,99.90
2019-06-07T20:48:06.347Z,99.90
2019-06-07T20:50:36.249Z,99.90
2019-06-07T20:53:07.048Z,99.90
2019-06-07T20:55:37.681Z,99.90
2019-06-07T20:58:07.618Z,99.90
2019-06-07T21:00:37.936Z,99.90
2019-06-07T21:03:07.844Z,99.90
2019-06-07T21:05:38.095Z,99.90
2019-06-07T21:08:10.756Z,99.90
2019-06-07T21:10:39.303Z,99.90
2019-06-07T21:13:10.125Z,99.90
2019-06-07T21:15:48.212Z,99.90
2019-06-07T21:18:18.815Z,99.90
2019-06-07T21:20:42.041Z,99.90
2019-06-07T21:23:12.065Z,99.90
2019-06-07T21:25:42.699Z,99.90
2019-06-07T21:28:12.268Z,99.90
2019-06-07T21:30:41.743Z,99.90
2019-06-07T21:33:11.916Z,99.90
2019-06-07T21:35:42.385Z,99.90
2019-06-07T21:38:12.784Z,99.90
2019-06-07T21:40:43.938Z,99.90
2019-06-07T21:43:13.354Z,99.90
2019-06-07T21:45:42.971Z,99.90
2019-06-07T21:48:14.203Z,99.90
2019-06-07T21:50:46.028Z,99.90
2019-06-07T21:53:15.396Z,99.90
2019-06-07T21:55:45.905Z,99.90
2019-06-07T21:58:15.364Z,99.90
2019-06-07T22:00:56.760Z,99.90
2019-06-07T22:03:26.338Z,99.90
2019-06-07T22:05:55.776Z,99.90
2019-06-07T22:08:25.243Z,99.90
2019-06-07T22:10:54.679Z,99.90
2019-06-07T22:13:24.184Z,99.90
2019-06-07T22:15:53.628Z,99.90
2019-06-07T22:18:23.007Z,99.90
2019-06-07T22:20:52.474Z,99.90
2019-06-07T22:23:21.906Z,99.90
2019-06-07T22:25:51.348Z,99.90
2019-06-07T22:28:20.874Z,99.90
2019-06-07T22:30:50.345Z,99.90
2019-06-07T22:33:19.770Z,99.90
2019-06-07T22:35:49.161Z,99.90
2019-06-07T22:38:18.681Z,99.90
2019-06-07T22:40:48.281Z,99.90
2019-06-07T22:43:18.922Z,99.90
2019-06-07T22:45:48.791Z,99.90
2019-06-07T22:48:21.281Z,99.90
2019-06-07T22:50:50.778Z,99.90
2019-06-07T22:53:20.244Z,99.90
2019-06-07T22:55:51.373Z,99.90
2019-06-07T22:58:20.907Z,99.90
2019-06-07T23:00:50.370Z,99.90
2019-06-07T23:03:19.815Z,99.90
2019-06-07T23:05:49.284Z,99.90
2019-06-07T23:08:19.119Z,99.90
2019-06-07T23:10:48.612Z,99.90
2019-06-07T23:13:18.067Z,99.90
2019-06-07T23:15:50.628Z,99.90
2019-06-07T23:18:20.146Z,99.90
2019-06-07T23:20:49.603Z,99.90
2019-06-07T23:23:20.029Z,99.90
2019-06-07T23:25:49.576Z,99.90
2019-06-07T23:28:19.032Z,99.90
2019-06-07T23:30:48.482Z,99.90
2019-06-07T23:33:18.853Z,99.90
2019-06-07T23:35:48.370Z,99.90
2019-06-07T23:38:19.107Z,99.90
2019-06-07T23:40:48.717Z,99.90
2019-06-07T23:43:19.535Z,99.90
2019-06-07T23:45:50.194Z,99.90
2019-06-07T23:48:19.635Z,99.90
2019-06-07T23:50:49.026Z,99.90
2019-06-07T23:53:19.827Z,99.90
2019-06-07T23:55:49.436Z,99.90
2019-06-07T23:58:20.483Z,99.90
